createdAt,value
2018-09-05T00:00:38.022Z,15.32
2018-09-05T00:03:07.432Z,15.36
2018-09-05T00:05:37.513Z,15.39
2018-09-05T00:08:06.927Z,15.33
2018-09-05T00:10:37.457Z,15.31
2018-09-05T00:13:06.795Z,15.28
2018-09-05T00:15:36.056Z,15.28
2018-09-05T00:18:05.503Z,15.24
2018-09-05T00:20:35.697Z,15.27
2018-09-05T00:23:05.113Z,15.31
2018-09-05T00:25:34.403Z,15.29
2018-09-05T00:28:03.739Z,15.20
2018-09-05T00:30:33.339Z,15.18
2018-09-05T00:33:02.800Z,15.19
2018-09-05T00:35:32.028Z,15.24
2018-09-05T00:38:01.360Z,15.19
2018-09-05T00:40:31.306Z,15.20
2018-09-05T00:43:00.654Z,15.25
2018-09-05T00:45:30.165Z,15.22
2018-09-05T00:47:59.574Z,15.13
2018-09-05T00:50:30.080Z,15.17
2018-09-05T00:52:59.743Z,15.16
2018-09-05T00:55:29.899Z,15.12
2018-09-05T00:57:59.508Z,15.09
2018-09-05T01:00:30.046Z,15.12
2018-09-05T01:02:59.715Z,15.13
2018-09-05T01:05:29.231Z,15.16
2018-09-05T01:07:58.636Z,15.11
2018-09-05T01:10:28.030Z,15.05
2018-09-05T01:12:57.523Z,15.06
2018-09-05T01:15:26.878Z,15.09
2018-09-05T01:17:56.240Z,15.04
2018-09-05T01:20:26.250Z,15.11
2018-09-05T01:22:55.674Z,15.32
2018-09-05T01:25:25.376Z,15.12
2018-09-05T01:27:54.764Z,15.05
2018-09-05T01:30:27.953Z,15.04
2018-09-05T01:32:59.243Z,15.07
2018-09-05T01:35:29.453Z,15.08
2018-09-05T01:38:01.133Z,15.09
2018-09-05T01:40:31.414Z,15.04
2018-09-05T01:43:00.781Z,15.02
2018-09-05T01:45:30.021Z,15.04
2018-09-05T01:47:59.425Z,15.08
2018-09-05T01:50:33.746Z,15.07
2018-09-05T01:53:03.109Z,15.08
2018-09-05T01:55:32.535Z,15.05
2018-09-05T01:58:01.878Z,15.02
2018-09-05T02:00:35.316Z,15.00
2018-09-05T02:03:05.555Z,14.93
2018-09-05T02:05:36.013Z,14.94
2018-09-05T02:08:05.466Z,14.99
2018-09-05T02:10:35.935Z,14.90
2018-09-05T02:13:06.016Z,14.95
2018-09-05T02:15:35.511Z,14.95
2018-09-05T02:18:04.906Z,14.90
2018-09-05T02:20:34.053Z,14.85
2018-09-05T02:23:03.491Z,14.90
2018-09-05T02:25:33.083Z,14.91
2018-09-05T02:28:02.484Z,14.89
2018-09-05T02:30:32.837Z,14.93
2018-09-05T02:33:02.089Z,14.92
2018-09-05T02:35:32.062Z,14.93
2018-09-05T02:38:01.548Z,14.89
2018-09-05T02:40:31.149Z,14.88
2018-09-05T02:43:00.614Z,14.90
2018-09-05T02:45:30.816Z,14.89
2018-09-05T02:48:00.102Z,14.86
2018-09-05T02:50:29.339Z,14.81
2018-09-05T02:52:58.665Z,14.81
2018-09-05T02:55:33.008Z,14.87
2018-09-05T02:58:03.492Z,14.88
2018-09-05T03:00:33.808Z,14.84
2018-09-05T03:03:03.314Z,14.84
2018-09-05T03:05:32.966Z,14.86
2018-09-05T03:08:02.557Z,14.86
2018-09-05T03:10:32.103Z,14.80
2018-09-05T03:13:01.480Z,14.77
2018-09-05T03:15:31.190Z,14.76
2018-09-05T03:18:00.902Z,14.66
2018-09-05T03:20:30.204Z,14.66
2018-09-05T03:22:59.461Z,14.68
2018-09-05T03:25:28.905Z,14.63
2018-09-05T03:27:58.672Z,14.60
2018-09-05T03:30:28.608Z,14.61
2018-09-05T03:32:58.009Z,14.63
2018-09-05T03:35:28.063Z,14.63
2018-09-05T03:37:57.765Z,14.71
2018-09-05T03:40:27.491Z,14.64
2018-09-05T03:42:57.072Z,14.61
2018-09-05T03:45:27.304Z,14.59
2018-09-05T03:47:57.752Z,14.55
2018-09-05T03:50:27.371Z,14.52
2018-09-05T03:52:56.561Z,14.53
2018-09-05T03:55:26.070Z,14.56
2018-09-05T03:57:55.784Z,14.53
2018-09-05T04:00:25.320Z,14.50
2018-09-05T04:02:54.752Z,14.50
2018-09-05T04:05:24.905Z,14.42
2018-09-05T04:07:54.348Z,14.52
2018-09-05T04:10:23.632Z,14.44
2018-09-05T04:12:53.303Z,14.35
2018-09-05T04:15:22.994Z,14.25
2018-09-05T04:17:52.522Z,14.26
2018-09-05T04:20:22.921Z,14.18
2018-09-05T04:22:52.402Z,14.06
2018-09-05T04:25:21.866Z,14.15
2018-09-05T04:27:51.381Z,14.05
2018-09-05T04:30:20.943Z,14.07
2018-09-05T04:32:50.325Z,14.11
2018-09-05T04:35:19.662Z,14.02
2018-09-05T04:37:49.107Z,14.05
2018-09-05T04:40:18.392Z,13.92
2018-09-05T04:42:47.818Z,14.01
2018-09-05T04:45:17.353Z,14.04
2018-09-05T04:47:46.794Z,14.09
2018-09-05T04:50:16.220Z,14.15
2018-09-05T04:52:45.738Z,14.16
2018-09-05T04:55:15.347Z,14.19
2018-09-05T04:57:44.770Z,14.24
2018-09-05T05:00:14.240Z,14.24
2018-09-05T05:02:44.749Z,14.28
2018-09-05T05:05:14.399Z,14.32
2018-09-05T05:07:45.915Z,14.31
2018-09-05T05:10:18.306Z,14.35
2018-09-05T05:12:47.591Z,14.36
2018-09-05T05:15:18.274Z,14.47
2018-09-05T05:17:48.747Z,14.30
2018-09-05T05:20:18.950Z,14.43
2018-09-05T05:22:48.770Z,14.39
2018-09-05T05:25:19.187Z,14.35
2018-09-05T05:27:48.930Z,14.31
2018-09-05T05:30:18.470Z,14.27
2018-09-05T05:32:48.252Z,14.29
2018-09-05T05:35:18.056Z,14.24
2018-09-05T05:37:47.590Z,14.25
2018-09-05T05:40:17.618Z,14.38
2018-09-05T05:42:47.278Z,14.48
2018-09-05T05:45:16.666Z,14.55
2018-09-05T05:47:46.141Z,14.62
2018-09-05T05:50:15.574Z,14.64
2018-09-05T05:52:45.569Z,14.51
2018-09-05T05:55:15.084Z,14.49
2018-09-05T05:57:44.491Z,14.46
2018-09-05T06:00:14.439Z,14.59
2018-09-05T06:02:43.764Z,14.67
2018-09-05T06:05:13.317Z,14.66
2018-09-05T06:07:43.012Z,14.70
2018-09-05T06:10:12.572Z,14.59
2018-09-05T06:12:41.959Z,14.72
2018-09-05T06:15:11.444Z,14.66
2018-09-05T06:17:40.723Z,14.74
2018-09-05T06:20:10.474Z,14.90
2018-09-05T06:22:43.364Z,14.99
2018-09-05T06:25:13.553Z,15.01
2018-09-05T06:27:43.251Z,15.10
2018-09-05T06:30:15.784Z,15.30
2018-09-05T06:32:45.258Z,15.42
2018-09-05T06:35:15.560Z,15.81
2018-09-05T06:37:45.050Z,16.24
2018-09-05T06:40:14.993Z,16.46
2018-09-05T06:42:44.463Z,16.80
2018-09-05T06:45:14.146Z,17.18
2018-09-05T06:47:43.496Z,17.40
2018-09-05T06:50:12.789Z,17.63
2018-09-05T06:52:42.240Z,17.91
2018-09-05T06:55:11.774Z,18.02
2018-09-05T06:57:42.223Z,18.23
2018-09-05T07:00:14.897Z,18.62
2018-09-05T07:02:44.616Z,18.47
2018-09-05T07:05:15.649Z,18.21
2018-09-05T07:07:45.154Z,18.28
2018-09-05T07:10:14.653Z,18.43
2018-09-05T07:12:44.163Z,17.94
2018-09-05T07:15:13.724Z,18.31
2018-09-05T07:17:43.615Z,18.23
2018-09-05T07:20:13.297Z,18.21
2018-09-05T07:22:43.466Z,18.26
2018-09-05T07:25:12.921Z,18.73
2018-09-05T07:27:42.480Z,18.77
2018-09-05T07:30:12.002Z,19.08
2018-09-05T07:32:41.376Z,18.34
2018-09-05T07:35:10.763Z,18.63
2018-09-05T07:37:40.115Z,18.72
2018-09-05T07:40:09.408Z,18.60
2018-09-05T07:42:38.716Z,18.47
2018-09-05T07:45:07.957Z,18.94
2018-09-05T07:47:37.317Z,18.79
2018-09-05T07:50:06.907Z,18.89
2018-09-05T07:52:36.262Z,19.64
2018-09-05T07:55:05.574Z,19.37
2018-09-05T07:57:34.925Z,20.12
2018-09-05T08:00:04.695Z,20.50
2018-09-05T08:02:34.039Z,20.03
2018-09-05T08:05:03.342Z,20.42
2018-09-05T08:07:32.863Z,20.63
2018-09-05T08:10:02.260Z,20.53
2018-09-05T08:12:31.592Z,20.87
2018-09-05T08:15:01.056Z,20.94
2018-09-05T08:17:30.554Z,21.09
2018-09-05T08:19:59.855Z,20.30
2018-09-05T08:22:29.247Z,20.53
2018-09-05T08:24:58.782Z,20.48
2018-09-05T08:27:28.906Z,21.19
2018-09-05T08:29:58.345Z,21.90
2018-09-05T08:32:27.817Z,21.31
2018-09-05T08:34:57.637Z,21.97
2018-09-05T08:37:26.971Z,22.45
2018-09-05T08:39:56.077Z,22.44
2018-09-05T08:42:25.529Z,22.66
2018-09-05T08:44:55.072Z,22.08
2018-09-05T08:47:24.527Z,21.81
2018-09-05T08:49:53.805Z,22.06
2018-09-05T08:52:23.231Z,21.46
2018-09-05T08:54:52.573Z,21.35
2018-09-05T08:57:26.244Z,22.07
2018-09-05T08:59:55.705Z,22.71
2018-09-05T09:02:25.201Z,22.57
2018-09-05T09:04:54.899Z,21.92
2018-09-05T09:07:24.202Z,22.65
2018-09-05T09:09:53.755Z,22.96
2018-09-05T09:12:23.240Z,23.10
2018-09-05T09:14:52.531Z,21.67
2018-09-05T09:17:21.944Z,21.59
2018-09-05T09:19:51.358Z,21.94
2018-09-05T09:22:20.632Z,21.84
2018-09-05T09:24:50.272Z,21.84
2018-09-05T09:27:19.872Z,21.89
2018-09-05T09:29:49.255Z,21.50
2018-09-05T09:32:19.268Z,21.21
2018-09-05T09:34:48.866Z,21.44
2018-09-05T09:37:18.256Z,21.19
2018-09-05T09:39:47.597Z,21.42
2018-09-05T09:42:16.721Z,21.56
2018-09-05T09:44:46.129Z,21.84
2018-09-05T09:47:15.540Z,21.92
2018-09-05T09:49:45.575Z,22.80
2018-09-05T09:52:20.299Z,22.92
2018-09-05T09:54:51.533Z,22.93
2018-09-05T09:57:23.261Z,23.01
2018-09-05T09:59:52.826Z,23.19
2018-09-05T10:02:27.537Z,23.75
2018-09-05T10:05:02.064Z,23.40
2018-09-05T10:07:36.853Z,24.06
2018-09-05T10:10:11.634Z,24.13
2018-09-05T10:12:47.133Z,23.46
2018-09-05T10:15:21.604Z,23.41
2018-09-05T10:17:56.444Z,22.83
2018-09-05T10:20:25.953Z,23.03
2018-09-05T10:22:55.300Z,23.63
2018-09-05T10:25:24.898Z,23.65
2018-09-05T10:27:54.426Z,23.75
2018-09-05T10:30:24.185Z,23.27
2018-09-05T10:32:54.261Z,23.21
2018-09-05T10:35:23.730Z,23.31
2018-09-05T10:37:53.639Z,23.74
2018-09-05T10:40:23.458Z,24.15
2018-09-05T10:42:53.428Z,24.44
2018-09-05T10:45:23.833Z,23.55
2018-09-05T10:47:55.006Z,23.61
2018-09-05T10:50:27.360Z,23.56
2018-09-05T10:52:57.630Z,23.66
2018-09-05T10:55:29.328Z,23.38
2018-09-05T10:57:59.791Z,23.35
2018-09-05T11:00:29.746Z,23.71
2018-09-05T11:02:59.363Z,24.39
2018-09-05T11:05:29.173Z,24.70
2018-09-05T11:07:59.198Z,24.98
2018-09-05T11:10:29.262Z,25.30
2018-09-05T11:12:59.205Z,25.91
2018-09-05T11:15:29.883Z,25.41
2018-09-05T11:17:59.122Z,25.55
2018-09-05T11:20:28.549Z,24.86
2018-09-05T11:22:57.883Z,25.46
2018-09-05T11:25:27.228Z,25.07
2018-09-05T11:27:57.606Z,25.33
2018-09-05T11:30:27.889Z,25.31
2018-09-05T11:32:58.498Z,25.06
2018-09-05T11:35:29.495Z,24.98
2018-09-05T11:37:59.103Z,24.63
2018-09-05T11:40:29.269Z,24.64
2018-09-05T11:42:59.121Z,24.54
2018-09-05T11:45:28.483Z,24.51
2018-09-05T11:47:58.412Z,24.26
2018-09-05T11:50:27.724Z,24.21
2018-09-05T11:52:58.405Z,24.12
2018-09-05T11:55:28.097Z,24.24
2018-09-05T11:57:57.705Z,24.17
2018-09-05T12:00:27.002Z,23.97
2018-09-05T12:02:56.502Z,24.08
2018-09-05T12:05:25.734Z,24.36
2018-09-05T12:07:55.184Z,24.89
2018-09-05T12:10:24.920Z,25.28
2018-09-05T12:12:55.316Z,25.17
2018-09-05T12:15:24.755Z,25.43
2018-09-05T12:17:54.226Z,25.49
2018-09-05T12:20:23.532Z,25.46
2018-09-05T12:23:20.395Z,24.72
2018-09-05T12:25:50.229Z,24.88
2018-09-05T12:28:19.796Z,24.60
2018-09-05T12:30:49.303Z,24.65
2018-09-05T12:33:18.942Z,24.92
2018-09-05T12:35:48.258Z,24.67
2018-09-05T12:38:17.979Z,24.80
2018-09-05T12:40:47.222Z,24.64
2018-09-05T12:43:16.865Z,24.82
2018-09-05T12:45:46.575Z,25.10
2018-09-05T12:48:16.387Z,25.24
2018-09-05T12:50:46.099Z,24.93
2018-09-05T12:53:15.707Z,24.13
2018-09-05T12:55:45.618Z,24.26
2018-09-05T12:58:15.331Z,24.67
2018-09-05T13:00:46.202Z,25.21
2018-09-05T13:03:15.827Z,25.39
2018-09-05T13:05:45.085Z,24.94
2018-09-05T13:08:14.691Z,25.07
2018-09-05T13:10:44.165Z,25.51
2018-09-05T13:13:16.046Z,25.46
2018-09-05T13:15:45.725Z,25.33
2018-09-05T13:18:15.575Z,24.84
2018-09-05T13:20:45.301Z,25.04
2018-09-05T13:23:15.791Z,25.29
2018-09-05T13:25:46.901Z,25.00
2018-09-05T13:28:16.505Z,24.70
2018-09-05T13:30:46.379Z,24.71
2018-09-05T13:33:16.399Z,24.92
2018-09-05T13:35:46.185Z,25.28
2018-09-05T13:38:16.853Z,25.31
2018-09-05T13:40:46.292Z,25.30
2018-09-05T13:43:16.151Z,25.24
2018-09-05T13:45:45.782Z,25.34
2018-09-05T13:48:16.190Z,24.92
2018-09-05T13:50:46.024Z,24.81
2018-09-05T13:53:16.839Z,24.97
2018-09-05T13:55:46.343Z,25.08
2018-09-05T13:58:15.924Z,24.99
2018-09-05T14:00:45.603Z,24.91
2018-09-05T14:03:15.814Z,24.64
2018-09-05T14:05:46.136Z,24.83
2018-09-05T14:08:16.277Z,24.46
2018-09-05T14:10:46.828Z,24.26
2018-09-05T14:13:16.347Z,24.50
2018-09-05T14:15:46.107Z,24.26
2018-09-05T14:18:16.091Z,24.39
2018-09-05T14:20:45.461Z,24.31
2018-09-05T14:23:14.872Z,24.24
2018-09-05T14:25:44.305Z,23.90
2018-09-05T14:28:14.165Z,23.92
2018-09-05T14:30:44.728Z,23.87
2018-09-05T14:33:14.654Z,23.90
2018-09-05T14:35:45.214Z,23.78
2018-09-05T14:38:15.217Z,24.09
2018-09-05T14:40:44.954Z,24.21
2018-09-05T14:43:15.468Z,24.20
2018-09-05T14:45:44.931Z,23.97
2018-09-05T14:48:16.171Z,23.86
2018-09-05T14:50:46.196Z,24.30
2018-09-05T14:53:15.479Z,24.21
2018-09-05T14:55:46.048Z,24.26
2018-09-05T14:58:15.664Z,24.01
2018-09-05T15:00:45.129Z,24.17
2018-09-05T15:03:14.777Z,24.33
2018-09-05T15:05:44.200Z,24.41
2018-09-05T15:08:13.551Z,24.35
2018-09-05T15:10:44.009Z,24.15
2018-09-05T15:13:13.915Z,23.78
2018-09-05T15:15:44.236Z,23.84
2018-09-05T15:18:14.166Z,23.89
2018-09-05T15:20:44.080Z,23.78
2018-09-05T15:23:14.226Z,23.74
2018-09-05T15:25:44.526Z,23.62
2018-09-05T15:28:14.444Z,23.31
2018-09-05T15:30:43.887Z,23.22
2018-09-05T15:33:13.350Z,23.19
2018-09-05T15:35:44.286Z,22.88
2018-09-05T15:38:14.097Z,22.73
2018-09-05T15:40:44.069Z,22.78
2018-09-05T15:43:14.856Z,22.71
2018-09-05T15:45:44.607Z,22.58
2018-09-05T15:48:14.125Z,22.68
2018-09-05T15:50:43.633Z,22.33
2018-09-05T15:53:13.222Z,22.09
2018-09-05T15:55:42.932Z,22.03
2018-09-05T15:58:12.525Z,21.96
2018-09-05T16:00:42.031Z,21.92
2018-09-05T16:03:11.512Z,21.64
2018-09-05T16:05:41.167Z,21.69
2018-09-05T16:08:10.727Z,21.52
2018-09-05T16:10:40.415Z,21.57
2018-09-05T16:13:09.876Z,21.36
2018-09-05T16:15:39.621Z,21.28
2018-09-05T16:18:09.014Z,21.19
2018-09-05T16:20:39.422Z,21.05
2018-09-05T16:23:09.721Z,20.87
2018-09-05T16:25:39.414Z,20.78
2018-09-05T16:28:13.123Z,20.75
2018-09-05T16:30:42.700Z,20.69
2018-09-05T16:33:12.281Z,20.70
2018-09-05T16:35:42.367Z,20.64
2018-09-05T16:38:12.783Z,20.63
2018-09-05T16:40:42.479Z,20.64
2018-09-05T16:43:11.986Z,20.69
2018-09-05T16:45:41.393Z,20.61
2018-09-05T16:48:11.840Z,20.38
2018-09-05T16:50:41.233Z,20.31
2018-09-05T16:53:11.109Z,20.21
2018-09-05T16:55:41.173Z,20.05
2018-09-05T16:58:10.689Z,20.07
2018-09-05T17:00:40.448Z,20.09
2018-09-05T17:03:09.952Z,19.98
2018-09-05T17:05:39.196Z,19.89
2018-09-05T17:08:08.635Z,19.63
2018-09-05T17:10:38.799Z,19.61
2018-09-05T17:13:09.092Z,19.58
2018-09-05T17:15:38.812Z,19.54
2018-09-05T17:18:08.272Z,19.55
2018-09-05T17:20:37.783Z,19.36
2018-09-05T17:23:07.122Z,19.30
2018-09-05T17:25:36.904Z,19.24
2018-09-05T17:28:06.472Z,19.14
2018-09-05T17:30:36.105Z,19.05
2018-09-05T17:33:05.407Z,18.97
2018-09-05T17:35:35.201Z,18.87
2018-09-05T17:38:04.525Z,18.75
2018-09-05T17:40:34.160Z,18.57
2018-09-05T17:43:03.976Z,18.71
2018-09-05T17:45:33.837Z,18.51
2018-09-05T17:48:05.127Z,18.47
2018-09-05T17:50:36.440Z,18.31
2018-09-05T17:53:05.840Z,18.24
2018-09-05T17:55:35.186Z,18.23
2018-09-05T17:58:05.929Z,18.14
2018-09-05T18:00:35.361Z,18.04
2018-09-05T18:03:04.887Z,17.97
2018-09-05T18:05:35.757Z,17.97
2018-09-05T18:08:05.193Z,17.91
2018-09-05T18:10:34.529Z,17.93
2018-09-05T18:13:04.766Z,17.84
2018-09-05T18:15:34.632Z,17.74
2018-09-05T18:18:04.212Z,17.62
2018-09-05T18:20:34.512Z,17.65
2018-09-05T18:23:04.041Z,17.47
2018-09-05T18:25:33.629Z,17.45
2018-09-05T18:28:03.307Z,17.39
2018-09-05T18:30:32.591Z,17.40
2018-09-05T18:33:02.047Z,17.36
2018-09-05T18:35:31.511Z,17.27
2018-09-05T18:38:01.099Z,17.34
2018-09-05T18:40:30.549Z,17.21
2018-09-05T18:43:00.433Z,17.16
2018-09-05T18:45:29.988Z,17.15
2018-09-05T18:47:59.756Z,17.10
2018-09-05T18:50:30.192Z,17.05
2018-09-05T18:53:04.871Z,17.15
2018-09-05T18:55:35.492Z,16.80
2018-09-05T18:58:05.255Z,16.71
2018-09-05T19:00:37.208Z,16.68
2018-09-05T19:03:08.709Z,16.66
2018-09-05T19:05:39.210Z,16.76
2018-09-05T19:08:09.829Z,16.79
2018-09-05T19:10:41.501Z,16.78
2018-09-05T19:13:11.005Z,16.52
2018-09-05T19:15:40.551Z,16.38
2018-09-05T19:18:10.589Z,16.37
2018-09-05T19:20:40.987Z,16.22
2018-09-05T19:23:10.482Z,16.28
2018-09-05T19:25:41.001Z,16.18
2018-09-05T19:28:10.397Z,15.97
2018-09-05T19:30:40.819Z,16.09
2018-09-05T19:33:10.828Z,16.05
2018-09-05T19:35:40.840Z,16.07
2018-09-05T19:38:11.139Z,16.07
2018-09-05T19:40:40.969Z,16.07
2018-09-05T19:43:14.633Z,16.12
2018-09-05T19:45:43.984Z,16.11
2018-09-05T19:48:15.638Z,16.17
2018-09-05T19:50:46.105Z,15.98
2018-09-05T19:53:21.329Z,15.91
2018-09-05T19:55:50.924Z,15.83
2018-09-05T19:58:21.449Z,15.73
2018-09-05T20:00:50.971Z,15.79
2018-09-05T20:03:20.928Z,15.84
2018-09-05T20:05:51.126Z,15.64
2018-09-05T20:08:21.487Z,15.65
2018-09-05T20:10:51.093Z,15.59
2018-09-05T20:13:20.959Z,15.52
2018-09-05T20:15:51.652Z,15.49
2018-09-05T20:18:21.983Z,15.50
2018-09-05T20:20:51.776Z,15.64
2018-09-05T20:23:21.382Z,15.45
2018-09-05T20:25:51.668Z,15.47
2018-09-05T20:28:23.026Z,15.50
2018-09-05T20:30:52.708Z,15.47
2018-09-05T20:33:22.373Z,15.48
2018-09-05T20:35:52.629Z,15.36
2018-09-05T20:38:22.253Z,15.30
2018-09-05T20:40:52.068Z,15.12
2018-09-05T20:43:21.343Z,15.25
2018-09-05T20:45:50.863Z,15.24
2018-09-05T20:48:20.172Z,15.08
2018-09-05T20:50:49.499Z,15.15
2018-09-05T20:53:18.891Z,15.05
2018-09-05T20:55:48.415Z,15.02
2018-09-05T20:58:18.617Z,15.02
2018-09-05T21:00:48.478Z,14.92
2018-09-05T21:03:17.873Z,14.93
2018-09-05T21:05:47.951Z,14.87
2018-09-05T21:08:17.327Z,14.71
2018-09-05T21:10:46.788Z,14.68
2018-09-05T21:13:16.164Z,14.60
2018-09-05T21:15:45.659Z,14.58
2018-09-05T21:18:15.164Z,14.51
2018-09-05T21:20:44.407Z,14.55
2018-09-05T21:23:14.427Z,14.44
2018-09-05T21:25:45.610Z,14.51
2018-09-05T21:28:17.703Z,14.40
2018-09-05T21:30:47.091Z,14.48
2018-09-05T21:33:18.064Z,14.49
2018-09-05T21:35:47.435Z,14.39
2018-09-05T21:38:16.847Z,14.42
2018-09-05T21:40:47.432Z,14.52
2018-09-05T21:43:17.582Z,14.25
2018-09-05T21:45:48.057Z,14.16
2018-09-05T21:48:18.504Z,14.14
2018-09-05T21:50:48.136Z,14.08
2018-09-05T21:53:18.089Z,14.13
2018-09-05T21:55:47.492Z,14.11
2018-09-05T21:58:16.830Z,14.21
2018-09-05T22:00:47.677Z,14.09
2018-09-05T22:03:17.604Z,14.05
2018-09-05T22:05:48.080Z,14.06
2018-09-05T22:08:17.961Z,14.05
2018-09-05T22:10:47.924Z,13.91
2018-09-05T22:13:18.295Z,13.97
2018-09-05T22:15:48.630Z,13.93
2018-09-05T22:18:18.785Z,13.88
2018-09-05T22:20:48.021Z,14.04
2018-09-05T22:23:17.380Z,13.87
2018-09-05T22:25:46.623Z,13.79
2018-09-05T22:28:16.047Z,13.76
2018-09-05T22:30:45.589Z,13.80
2018-09-05T22:33:16.093Z,13.89
2018-09-05T22:35:46.941Z,13.82
2018-09-05T22:38:16.953Z,13.85
2018-09-05T22:40:53.699Z,13.77
2018-09-05T22:43:35.160Z,13.77
2018-09-05T22:46:15.109Z,13.75
2018-09-05T22:49:11.754Z,13.59
2018-09-05T22:52:24.886Z,13.45
2018-09-05T22:56:41.505Z,13.49
2018-09-05T23:00:29.564Z,13.41
2018-09-05T23:03:09.603Z,13.30
2018-09-05T23:05:50.790Z,13.22
2018-09-05T23:08:40.720Z,13.11
2018-09-05T23:11:21.684Z,13.11
2018-09-05T23:14:01.947Z,13.18
2018-09-05T23:16:43.135Z,13.33
2018-09-05T23:19:48.148Z,13.16
2018-09-05T23:22:17.513Z,13.16
2018-09-05T23:24:47.016Z,13.06
2018-09-05T23:27:16.331Z,13.09
2018-09-05T23:29:45.985Z,13.15
2018-09-05T23:32:16.513Z,12.93
2018-09-05T23:34:46.270Z,12.98
2018-09-05T23:37:15.913Z,12.89
2018-09-05T23:39:45.395Z,12.81
2018-09-05T23:42:14.812Z,12.84
2018-09-05T23:44:44.364Z,12.97
2018-09-05T23:47:13.886Z,12.84
2018-09-05T23:49:43.348Z,12.83
2018-09-05T23:52:12.824Z,12.80
2018-09-05T23:54:42.459Z,12.83
2018-09-05T23:57:11.734Z,12.91
2018-09-05T23:59:41.068Z,12.87
